Terminal Aerodrome Forecast
Issued by NWS Charleston, WV

Current Version | Previous Version | Graphics & Text | Print | Product List | Glossary On
Versions: 1 2 3 4 5 6 7 8 9 10 11 12 13 14 15 16 17 18 19 20 21 22 23 24 25 26 27 28 29
000
FTUS41 KRLX 021744
TAFPKB
TAF
KPKB 021744Z 0218/0318 VRB03KT P6SM BKN080
     FM030500 00000KT 3SM BR BKN100
     FM030900 00000KT 1SM BR BKN001
     FM031200 00000KT 3SM BR BKN003
     FM031400 00000KT P6SM BKN250=

USA.gov is the U.S. government's official web portal to all federal, state and local government web resources and services.